Time;durP1;ratioP1;P1;durP2;ratioP2;P2;SDS_P1;SDS_P2;PMS_P1;PMS_P2;Temp;Humidity;BMP_temperature;BMP_pressure;BME280_temperature;BME280_humidity;BME280_pressure;Samples;Min_cycle;Max_cycle;Signal;HPM_P1;HPM_P2
2021/12/08 00:00:47;;;;;;;24.73;6.97;;;;;;;;;;5062201;28;20075;-60
2021/12/08 00:03:13;;;;;;;20.85;6.68;;;;;;;;;;5058066;28;20157;-60
2021/12/08 00:05:41;;;;;;;18.77;7.05;;;;;;;;;;5061429;28;20400;-60
2021/12/08 00:08:07;;;;;;;25.67;7.35;;;;;;;;;;5055909;28;20037;-60
2021/12/08 00:13:03;;;;;;;21.52;7.15;;;;;;;;;;5058594;28;20461;-60
2021/12/08 00:15:30;;;;;;;15.85;7.20;;;;;;;;;;5064024;28;20437;-60
2021/12/08 00:17:56;;;;;;;15.25;6.18;;;;;;;;;;5067504;28;20041;-60
2021/12/08 00:20:23;;;;;;;17.63;7.07;;;;;;;;;;5055342;28;20037;-60
2021/12/08 00:22:49;;;;;;;15.55;7.35;;;;;;;;;;5059200;28;20060;-60
2021/12/08 00:25:15;;;;;;;19.50;7.28;;;;;;;;;;5059385;28;20040;-60
2021/12/08 00:27:42;;;;;;;19.08;8.05;;;;;;;;;;5053648;28;20040;-60
2021/12/08 00:30:08;;;;;;;19.08;7.15;;;;;;;;;;5054214;28;20033;-60
2021/12/08 00:32:36;;;;;;;16.88;7.43;;;;;;;;;;5060830;28;20391;-60
2021/12/08 00:35:02;;;;;;;17.58;7.25;;;;;;;;;;5058046;28;20052;-59
2021/12/08 00:37:29;;;;;;;21.10;8.00;;;;;;;;;;5064402;28;20380;-60
2021/12/08 00:39:56;;;;;;;16.88;7.38;;;;;;;;;;5062449;28;20128;-60
2021/12/08 00:42:22;;;;;;;12.75;6.25;;;;;;;;;;5035308;28;20060;-60
2021/12/08 00:44:48;;;;;;;19.50;8.48;;;;;;;;;;5059985;28;20037;-59
2021/12/08 00:47:14;;;;;;;12.07;7.07;;;;;;;;;;5062164;28;20484;-60
2021/12/08 00:49:41;;;;;;;16.10;6.70;;;;;;;;;;5062452;28;20040;-60
2021/12/08 00:52:07;;;;;;;14.55;7.93;;;;;;;;;;5062421;28;20056;-60
2021/12/08 00:54:34;;;;;;;15.13;7.55;;;;;;;;;;5041965;28;20082;-60
2021/12/08 00:57:00;;;;;;;12.07;7.22;;;;;;;;;;5064463;28;20053;-60
2021/12/08 00:59:27;;;;;;;12.07;6.78;;;;;;;;;;5052909;28;20507;-60
2021/12/08 01:01:54;;;;;;;12.18;6.90;;;;;;;;;;5058928;28;20049;-60
2021/12/08 01:04:20;;;;;;;19.63;8.40;;;;;;;;;;5055632;28;20388;-60
2021/12/08 01:06:46;;;;;;;13.15;7.15;;;;;;;;;;5070678;28;20044;-60
2021/12/08 01:09:16;;;;;;;18.60;8.23;;;;;;;;;;5062389;28;20033;-60
2021/12/08 01:11:42;;;;;;;17.38;8.23;;;;;;;;;;5052569;28;20045;-60
2021/12/08 01:14:08;;;;;;;19.00;8.13;;;;;;;;;;5067386;28;20488;-60
2021/12/08 01:16:34;;;;;;;18.52;8.95;;;;;;;;;;5056780;28;20033;-60
2021/12/08 01:19:01;;;;;;;18.73;9.38;;;;;;;;;;5056121;28;20051;-60
2021/12/08 01:21:27;;;;;;;19.08;7.97;;;;;;;;;;5034020;28;20045;-60
2021/12/08 01:23:53;;;;;;;17.20;10.07;;;;;;;;;;5055586;28;20041;-60
2021/12/08 01:26:19;;;;;;;18.42;8.90;;;;;;;;;;5034766;28;20120;-60
2021/12/08 01:28:46;;;;;;;18.77;9.90;;;;;;;;;;5057054;28;20044;-60
2021/12/08 01:31:12;;;;;;;14.98;9.15;;;;;;;;;;5051497;28;20472;-60
2021/12/08 01:33:38;;;;;;;21.85;9.82;;;;;;;;;;5070624;28;20052;-60
2021/12/08 01:36:05;;;;;;;24.70;12.35;;;;;;;;;;5059944;28;20049;-60
2021/12/08 01:38:32;;;;;;;18.85;10.45;;;;;;;;;;5055324;28;20048;-60
2021/12/08 01:40:59;;;;;;;19.83;9.77;;;;;;;;;;5055723;28;20128;-60
2021/12/08 01:43:28;;;;;;;22.60;10.35;;;;;;;;;;5055040;28;20125;-59
2021/12/08 01:46:03;;;;;;;19.85;12.02;;;;;;;;;;5061396;28;20045;-60
2021/12/08 01:48:31;;;;;;;21.25;10.70;;;;;;;;;;5039816;28;20107;-60
2021/12/08 01:51:01;;;;;;;18.10;10.38;;;;;;;;;;5057257;28;20041;-60
2021/12/08 01:53:27;;;;;;;21.42;10.90;;;;;;;;;;5045650;28;20526;-60
2021/12/08 01:55:53;;;;;;;14.40;9.05;;;;;;;;;;5064775;28;20167;-60
2021/12/08 01:58:20;;;;;;;19.40;10.70;;;;;;;;;;5056781;28;20590;-60
2021/12/08 02:00:49;;;;;;;26.42;11.80;;;;;;;;;;5060687;28;20037;-60
2021/12/08 02:03:16;;;;;;;19.05;11.13;;;;;;;;;;5062126;28;20044;-60
2021/12/08 02:05:42;;;;;;;19.20;10.35;;;;;;;;;;5069806;28;20032;-60
2021/12/08 02:08:08;;;;;;;18.17;12.90;;;;;;;;;;5059441;28;20052;-60
2021/12/08 02:10:38;;;;;;;20.55;11.40;;;;;;;;;;5055443;28;20037;-60
2021/12/08 02:13:05;;;;;;;21.02;13.13;;;;;;;;;;5055358;28;20044;-60
2021/12/08 02:15:32;;;;;;;21.60;11.35;;;;;;;;;;5059550;28;20566;-60
2021/12/08 02:17:58;;;;;;;17.80;11.15;;;;;;;;;;5042046;28;20064;-60
2021/12/08 02:20:26;;;;;;;27.85;12.90;;;;;;;;;;5063094;28;20032;-60
2021/12/08 02:22:52;;;;;;;22.98;13.85;;;;;;;;;;5069929;28;20396;-60
2021/12/08 02:25:21;;;;;;;24.23;12.75;;;;;;;;;;5073729;28;20036;-60
2021/12/08 02:27:48;;;;;;;18.85;12.23;;;;;;;;;;5067055;28;20041;-60
2021/12/08 02:30:24;;;;;;;19.15;11.00;;;;;;;;;;5059292;28;20059;-60
2021/12/08 02:46:44;;;;;;;23.73;15.18;;;;;;;;;;5036421;28;20056;-60
2021/12/08 02:49:10;;;;;;;30.35;19.05;;;;;;;;;;5039450;28;20189;-60
2021/12/08 02:51:36;;;;;;;28.88;16.88;;;;;;;;;;5041495;28;20044;-60
2021/12/08 02:54:03;;;;;;;24.42;15.55;;;;;;;;;;5045361;28;20049;-60
2021/12/08 02:56:30;;;;;;;27.95;16.55;;;;;;;;;;5040703;28;20499;-60
2021/12/08 02:58:57;;;;;;;23.48;16.33;;;;;;;;;;5036306;28;20045;-60
2021/12/08 03:01:23;;;;;;;25.90;16.85;;;;;;;;;;5040431;28;20079;-60
2021/12/08 03:03:50;;;;;;;25.63;17.15;;;;;;;;;;5043841;28;20033;-60
2021/12/08 03:06:16;;;;;;;28.23;17.98;;;;;;;;;;5046504;28;20116;-60
2021/12/08 03:08:42;;;;;;;32.45;20.05;;;;;;;;;;5046099;28;20539;-60
2021/12/08 03:11:09;;;;;;;29.75;21.02;;;;;;;;;;5042893;28;20076;-60
2021/12/08 03:13:38;;;;;;;34.58;20.30;;;;;;;;;;5041506;28;20497;-60
2021/12/08 03:16:05;;;;;;;32.13;22.08;;;;;;;;;;5043878;28;20174;-60
2021/12/08 03:18:34;;;;;;;30.02;21.65;;;;;;;;;;5040665;28;20049;-60
2021/12/08 03:21:01;;;;;;;28.52;20.08;;;;;;;;;;5039560;28;20041;-60
2021/12/08 03:23:34;;;;;;;33.63;21.83;;;;;;;;;;5043729;28;20064;-60
2021/12/08 03:26:03;;;;;;;35.25;22.13;;;;;;;;;;5045445;28;20112;-60
2021/12/08 03:28:35;;;;;;;32.05;19.63;;;;;;;;;;5043809;28;20098;-60
2021/12/08 03:31:07;;;;;;;33.58;23.17;;;;;;;;;;5038922;28;20045;-60
2021/12/08 03:33:33;;;;;;;37.67;24.23;;;;;;;;;;5039185;28;20049;-60
2021/12/08 03:35:59;;;;;;;40.95;24.92;;;;;;;;;;5039655;28;20045;-60
2021/12/08 03:38:27;;;;;;;33.60;22.30;;;;;;;;;;5038126;28;20042;-60
2021/12/08 03:40:54;;;;;;;29.63;21.00;;;;;;;;;;5038529;28;20119;-60
2021/12/08 03:43:20;;;;;;;33.65;22.95;;;;;;;;;;5041096;28;20040;-60
2021/12/08 03:45:48;;;;;;;39.50;23.02;;;;;;;;;;5040140;28;20052;-60
2021/12/08 03:48:20;;;;;;;28.58;20.20;;;;;;;;;;5040871;28;20473;-60
2021/12/08 03:50:46;;;;;;;33.63;21.00;;;;;;;;;;5041598;28;20508;-60
2021/12/08 03:53:15;;;;;;;36.60;24.08;;;;;;;;;;5042855;28;20060;-60
2021/12/08 03:55:43;;;;;;;31.05;21.25;;;;;;;;;;5041720;28;20070;-60
2021/12/08 03:58:10;;;;;;;40.47;23.40;;;;;;;;;;5039320;28;20048;-60
2021/12/08 04:00:37;;;;;;;36.38;21.17;;;;;;;;;;5044807;28;20399;-60
2021/12/08 04:03:05;;;;;;;37.72;20.73;;;;;;;;;;5040753;28;20119;-60
2021/12/08 04:05:43;;;;;;;34.58;22.52;;;;;;;;;;5044316;28;20045;-60
2021/12/08 04:08:16;;;;;;;30.45;20.90;;;;;;;;;;5041067;28;20428;-60
2021/12/08 04:10:46;;;;;;;36.45;22.10;;;;;;;;;;5035930;28;20538;-60
2021/12/08 04:13:13;;;;;;;38.90;22.27;;;;;;;;;;5038366;28;20041;-60
2021/12/08 04:15:39;;;;;;;36.75;23.33;;;;;;;;;;5038625;28;20508;-60
2021/12/08 04:18:06;;;;;;;34.95;21.70;;;;;;;;;;5037294;28;20191;-60
2021/12/08 04:20:36;;;;;;;32.17;21.05;;;;;;;;;;5040768;28;20045;-60
2021/12/08 04:23:03;;;;;;;32.25;22.48;;;;;;;;;;5018422;28;20052;-60
2021/12/08 04:25:33;;;;;;;38.38;22.92;;;;;;;;;;5039381;28;20185;-60
2021/12/08 04:28:00;;;;;;;40.80;23.65;;;;;;;;;;5040308;28;20496;-60
2021/12/08 04:30:30;;;;;;;36.03;22.85;;;;;;;;;;5038584;28;20118;-60
2021/12/08 04:32:57;;;;;;;39.78;24.25;;;;;;;;;;5039014;28;20065;-60
2021/12/08 04:35:23;;;;;;;44.10;25.40;;;;;;;;;;5043665;28;20087;-60
2021/12/08 04:37:52;;;;;;;37.63;23.02;;;;;;;;;;5035231;28;20059;-60
2021/12/08 04:40:50;;;;;;;38.67;23.77;;;;;;;;;;5057493;28;20055;-60
2021/12/08 04:43:31;;;;;;;38.33;22.88;;;;;;;;;;5059559;28;20395;-60
2021/12/08 04:48:54;;;;;;;35.83;22.83;;;;;;;;;;5060913;28;20097;-60
2021/12/08 04:51:42;;;;;;;40.53;24.93;;;;;;;;;;5059266;28;20037;-60
2021/12/08 05:03:15;;;;;;;36.20;22.50;;;;;;;;;;5060008;28;20044;-60
2021/12/08 05:05:49;;;;;;;33.80;20.90;;;;;;;;;;5059406;28;20052;-60
2021/12/08 05:08:21;;;;;;;41.13;21.75;;;;;;;;;;5042060;28;20063;-60
2021/12/08 05:10:48;;;;;;;34.03;21.85;;;;;;;;;;5056611;28;20493;-60
2021/12/08 05:13:18;;;;;;;33.35;21.80;;;;;;;;;;5059024;28;20048;-60
2021/12/08 05:15:48;;;;;;;33.08;22.55;;;;;;;;;;5059105;28;20057;-60
2021/12/08 05:18:16;;;;;;;30.27;19.88;;;;;;;;;;5060508;28;20389;-60
2021/12/08 05:20:46;;;;;;;32.25;20.60;;;;;;;;;;5056993;28;20060;-60
2021/12/08 05:23:16;;;;;;;32.95;21.08;;;;;;;;;;5058605;28;20102;-60
2021/12/08 05:25:44;;;;;;;34.88;19.88;;;;;;;;;;5042013;28;20056;-60
2021/12/08 05:28:12;;;;;;;28.25;19.67;;;;;;;;;;5059221;28;20148;-60
2021/12/08 05:30:41;;;;;;;32.20;19.73;;;;;;;;;;5061015;28;20124;-60
2021/12/08 05:33:08;;;;;;;30.30;19.70;;;;;;;;;;5057974;28;20029;-60
2021/12/08 05:35:35;;;;;;;37.78;19.42;;;;;;;;;;5058087;28;20065;-60
2021/12/08 05:38:01;;;;;;;33.25;20.70;;;;;;;;;;5057821;28;20044;-60
2021/12/08 05:40:32;;;;;;;31.75;19.38;;;;;;;;;;5058817;28;20127;-60
2021/12/08 05:42:58;;;;;;;33.97;21.20;;;;;;;;;;5058662;28;20110;-60
2021/12/08 05:45:25;;;;;;;34.53;21.20;;;;;;;;;;5061156;28;20051;-60
2021/12/08 05:47:52;;;;;;;40.28;21.17;;;;;;;;;;5040771;28;20044;-60
2021/12/08 05:50:22;;;;;;;34.30;19.10;;;;;;;;;;5057806;28;20044;-60
2021/12/08 05:52:51;;;;;;;30.75;19.20;;;;;;;;;;5058807;28;20036;-60
2021/12/08 05:55:17;;;;;;;34.35;19.20;;;;;;;;;;5058194;28;20106;-60
2021/12/08 05:57:44;;;;;;;29.00;17.98;;;;;;;;;;5066174;28;20059;-60
2021/12/08 06:00:13;;;;;;;32.83;17.00;;;;;;;;;;5056518;28;20040;-60
2021/12/08 06:02:39;;;;;;;30.10;16.88;;;;;;;;;;5062670;28;20036;-60
2021/12/08 06:05:07;;;;;;;24.10;16.27;;;;;;;;;;5062887;28;20054;-59
2021/12/08 06:07:33;;;;;;;31.25;17.40;;;;;;;;;;5062037;28;20087;-60
2021/12/08 06:10:01;;;;;;;36.03;18.58;;;;;;;;;;5055500;28;20048;-60
2021/12/08 06:12:27;;;;;;;34.03;17.27;;;;;;;;;;5056343;28;20044;-60
2021/12/08 06:14:55;;;;;;;33.42;17.60;;;;;;;;;;5057762;28;20045;-60
2021/12/08 06:17:23;;;;;;;29.50;15.45;;;;;;;;;;5056217;28;20048;-60
2021/12/08 06:19:49;;;;;;;33.72;16.00;;;;;;;;;;5057703;28;20483;-60
2021/12/08 06:22:17;;;;;;;30.48;15.90;;;;;;;;;;5057854;28;20182;-60
2021/12/08 06:24:44;;;;;;;27.15;13.73;;;;;;;;;;5055973;28;20040;-60
2021/12/08 06:27:10;;;;;;;23.88;13.20;;;;;;;;;;5039295;28;20105;-60
2021/12/08 06:29:37;;;;;;;23.20;13.45;;;;;;;;;;5058833;28;21394;-60
2021/12/08 06:32:04;;;;;;;24.65;13.50;;;;;;;;;;5054752;28;20040;-60
2021/12/08 06:34:31;;;;;;;29.02;13.05;;;;;;;;;;5061791;28;20700;-60
2021/12/08 06:37:00;;;;;;;25.02;11.98;;;;;;;;;;5055763;28;21384;-60
2021/12/08 06:39:30;;;;;;;25.45;12.38;;;;;;;;;;5039511;28;20143;-60
2021/12/08 06:42:00;;;;;;;29.13;12.95;;;;;;;;;;5056887;28;20064;-60
2021/12/08 06:44:28;;;;;;;28.65;12.30;;;;;;;;;;5052870;28;20075;-60
2021/12/08 06:46:55;;;;;;;23.83;10.93;;;;;;;;;;5043015;28;20040;-60
2021/12/08 06:49:22;;;;;;;22.30;11.13;;;;;;;;;;5053303;28;20048;-63
2021/12/08 06:51:54;;;;;;;23.75;10.60;;;;;;;;;;5053586;28;20397;-59
2021/12/08 06:54:22;;;;;;;26.63;11.07;;;;;;;;;;5034705;28;20514;-60
2021/12/08 06:56:53;;;;;;;23.75;11.02;;;;;;;;;;5039839;28;20423;-60
2021/12/08 06:59:22;;;;;;;21.17;10.48;;;;;;;;;;5058159;28;20037;-60
2021/12/08 07:02:02;;;;;;;27.90;11.15;;;;;;;;;;5059138;28;20041;-61
2021/12/08 07:04:34;;;;;;;17.67;10.40;;;;;;;;;;5060848;28;20119;-61
2021/12/08 07:07:01;;;;;;;24.27;10.88;;;;;;;;;;5064656;28;20052;-62
2021/12/08 07:09:30;;;;;;;19.95;9.80;;;;;;;;;;5056447;28;20033;-61
2021/12/08 07:11:58;;;;;;;18.92;9.95;;;;;;;;;;5061400;28;20045;-61
2021/12/08 07:14:25;;;;;;;17.45;9.20;;;;;;;;;;5061233;28;20033;-62
2021/12/08 07:16:53;;;;;;;15.88;8.65;;;;;;;;;;5068441;28;20059;-61
2021/12/08 07:19:33;;;;;;;15.68;8.50;;;;;;;;;;5042877;28;20062;-61
2021/12/08 07:22:01;;;;;;;19.95;7.90;;;;;;;;;;5064069;28;20045;-61
2021/12/08 07:24:31;;;;;;;16.65;7.93;;;;;;;;;;5064467;28;20048;-61
2021/12/08 07:26:59;;;;;;;16.17;7.57;;;;;;;;;;5064026;28;20044;-62
2021/12/08 07:29:27;;;;;;;20.30;7.68;;;;;;;;;;5060523;28;20438;-61
2021/12/08 07:31:56;;;;;;;17.08;7.35;;;;;;;;;;5059250;28;20041;-62
2021/12/08 07:34:24;;;;;;;14.75;6.70;;;;;;;;;;5063802;28;20042;-62
2021/12/08 07:36:53;;;;;;;21.92;7.30;;;;;;;;;;5065507;28;20052;-62
2021/12/08 07:39:23;;;;;;;15.05;7.03;;;;;;;;;;5063366;28;20044;-62
2021/12/08 07:41:54;;;;;;;16.80;6.75;;;;;;;;;;5045421;28;20492;-62
2021/12/08 07:44:22;;;;;;;15.60;6.32;;;;;;;;;;5062913;28;20569;-61
2021/12/08 07:46:51;;;;;;;14.95;6.57;;;;;;;;;;5043482;28;20047;-61
2021/12/08 07:49:20;;;;;;;14.52;6.78;;;;;;;;;;5059010;28;20392;-61
2021/12/08 07:51:50;;;;;;;14.65;8.05;;;;;;;;;;5064830;28;20361;-61
2021/12/08 07:54:17;;;;;;;23.65;7.55;;;;;;;;;;5045238;28;20048;-61
2021/12/08 07:56:45;;;;;;;15.02;6.00;;;;;;;;;;5060529;28;20072;-61
2021/12/08 07:59:12;;;;;;;16.83;7.75;;;;;;;;;;5040771;28;20123;-61
2021/12/08 08:01:41;;;;;;;16.73;7.93;;;;;;;;;;5060419;28;20045;-62
2021/12/08 08:04:09;;;;;;;11.63;6.00;;;;;;;;;;5062673;28;20194;-62
2021/12/08 08:06:37;;;;;;;12.52;5.63;;;;;;;;;;5061812;28;20178;-61
2021/12/08 08:09:07;;;;;;;13.75;6.10;;;;;;;;;;5043865;28;20179;-62
2021/12/08 08:11:36;;;;;;;11.27;5.85;;;;;;;;;;5057740;28;20037;-62
2021/12/08 08:14:04;;;;;;;21.25;5.35;;;;;;;;;;5059055;28;20049;-62
2021/12/08 08:16:33;;;;;;;17.10;5.85;;;;;;;;;;5056117;28;20118;-62
2021/12/08 08:19:06;;;;;;;9.68;4.90;;;;;;;;;;5059874;28;20044;-62
2021/12/08 08:21:34;;;;;;;11.13;5.07;;;;;;;;;;5060326;28;20543;-62
2021/12/08 08:24:01;;;;;;;12.27;5.05;;;;;;;;;;5060892;28;20076;-62
2021/12/08 08:26:27;;;;;;;16.13;5.15;;;;;;;;;;5059494;28;20049;-62
2021/12/08 08:28:54;;;;;;;10.68;4.50;;;;;;;;;;5061466;28;20487;-62
2021/12/08 08:31:22;;;;;;;13.57;4.18;;;;;;;;;;5061429;28;20134;-62
2021/12/08 08:33:49;;;;;;;12.60;4.20;;;;;;;;;;5064769;28;20131;-62
2021/12/08 08:36:17;;;;;;;11.77;4.07;;;;;;;;;;5063294;28;20447;-62
2021/12/08 08:38:46;;;;;;;14.82;5.78;;;;;;;;;;5060759;28;20513;-62
2021/12/08 08:41:17;;;;;;;14.10;4.13;;;;;;;;;;5042934;28;20119;-62
2021/12/08 08:43:44;;;;;;;9.75;3.75;;;;;;;;;;5040995;28;20037;-62
2021/12/08 08:46:13;;;;;;;13.80;3.67;;;;;;;;;;5059833;28;20056;-62
2021/12/08 08:48:43;;;;;;;11.75;3.80;;;;;;;;;;5055058;28;20040;-62
2021/12/08 08:51:15;;;;;;;15.13;3.60;;;;;;;;;;5047711;28;20049;-62
2021/12/08 08:53:43;;;;;;;9.05;3.00;;;;;;;;;;5031428;28;20036;-62
2021/12/08 08:56:11;;;;;;;15.00;4.32;;;;;;;;;;5057229;28;20139;-62
2021/12/08 08:58:39;;;;;;;15.75;3.55;;;;;;;;;;5040048;28;20123;-62
2021/12/08 09:01:08;;;;;;;13.40;4.07;;;;;;;;;;5060206;28;20436;-62
2021/12/08 09:03:36;;;;;;;9.52;3.17;;;;;;;;;;5045764;28;20052;-62
2021/12/08 09:06:08;;;;;;;18.30;3.63;;;;;;;;;;5056846;28;20621;-62
2021/12/08 09:08:35;;;;;;;12.70;3.55;;;;;;;;;;5059223;28;20269;-62
2021/12/08 09:11:12;;;;;;;11.75;2.90;;;;;;;;;;5058793;28;20404;-61
2021/12/08 09:13:43;;;;;;;14.68;2.72;;;;;;;;;;5059348;28;20441;-61
2021/12/08 09:16:15;;;;;;;15.02;4.05;;;;;;;;;;5049075;28;20048;-61
2021/12/08 09:18:50;;;;;;;17.67;3.45;;;;;;;;;;5054403;28;20052;-61
2021/12/08 09:21:19;;;;;;;11.15;2.50;;;;;;;;;;5061694;28;20044;-61
2021/12/08 09:23:56;;;;;;;12.90;3.45;;;;;;;;;;5059681;28;20056;-61
2021/12/08 09:26:23;;;;;;;13.05;3.47;;;;;;;;;;5064427;28;20097;-61
2021/12/08 09:28:54;;;;;;;13.23;2.80;;;;;;;;;;5064321;28;20041;-61
2021/12/08 09:31:23;;;;;;;18.63;4.00;;;;;;;;;;5063434;28;20444;-61
2021/12/08 09:34:00;;;;;;;15.05;3.72;;;;;;;;;;5055445;28;20064;-61
2021/12/08 09:36:30;;;;;;;18.58;3.53;;;;;;;;;;5057946;28;20058;-62
2021/12/08 09:39:01;;;;;;;9.80;4.38;;;;;;;;;;5051582;28;20394;-62
2021/12/08 09:41:36;;;;;;;14.60;3.45;;;;;;;;;;5039001;28;20458;-62
2021/12/08 09:44:07;;;;;;;10.55;3.08;;;;;;;;;;5035925;28;20518;-62
2021/12/08 09:46:35;;;;;;;9.70;3.20;;;;;;;;;;5059431;28;20032;-62
2021/12/08 09:49:03;;;;;;;14.77;3.80;;;;;;;;;;5042422;28;20527;-63
2021/12/08 09:51:30;;;;;;;14.80;3.53;;;;;;;;;;5064277;28;20068;-62
2021/12/08 09:53:56;;;;;;;19.05;3.97;;;;;;;;;;5061157;28;20095;-62
2021/12/08 09:56:24;;;;;;;16.80;4.18;;;;;;;;;;5063861;28;20041;-62
2021/12/08 09:58:50;;;;;;;13.63;4.30;;;;;;;;;;5046070;28;20049;-62
2021/12/08 10:01:20;;;;;;;11.70;3.88;;;;;;;;;;5061527;28;20090;-62
2021/12/08 10:03:47;;;;;;;15.45;4.13;;;;;;;;;;5060384;28;20102;-62
2021/12/08 10:06:14;;;;;;;18.10;4.72;;;;;;;;;;5040866;28;20129;-62
2021/12/08 10:08:41;;;;;;;15.02;3.95;;;;;;;;;;5058313;28;20076;-62
2021/12/08 10:11:07;;;;;;;13.73;4.10;;;;;;;;;;5042967;28;20132;-62
2021/12/08 10:13:34;;;;;;;14.85;4.38;;;;;;;;;;5042607;28;20127;-62
2021/12/08 10:16:00;;;;;;;11.30;4.00;;;;;;;;;;5036844;28;20052;-62
2021/12/08 10:18:26;;;;;;;11.98;4.00;;;;;;;;;;5056138;28;20041;-62
2021/12/08 10:20:54;;;;;;;17.30;4.55;;;;;;;;;;5058046;28;20531;-62
2021/12/08 10:23:30;;;;;;;13.02;4.18;;;;;;;;;;5061427;28;20061;-62
2021/12/08 10:25:56;;;;;;;13.70;4.28;;;;;;;;;;5043394;28;20067;-61
2021/12/08 10:28:28;;;;;;;15.55;4.70;;;;;;;;;;5060753;28;20048;-62
2021/12/08 10:31:02;;;;;;;12.80;3.65;;;;;;;;;;5059738;28;20093;-62
2021/12/08 10:33:54;;;;;;;15.45;3.90;;;;;;;;;;5043687;28;20049;-62
2021/12/08 10:36:43;;;;;;;14.15;4.47;;;;;;;;;;5059977;28;20530;-62
2021/12/08 10:39:14;;;;;;;20.08;3.95;;;;;;;;;;5066227;28;20040;-62
2021/12/08 10:42:14;;;;;;;13.70;3.90;;;;;;;;;;5059863;28;20036;-62
2021/12/08 10:44:47;;;;;;;11.70;3.72;;;;;;;;;;5064992;28;20037;-62
2021/12/08 10:47:18;;;;;;;11.75;3.58;;;;;;;;;;5056195;28;20134;-62
2021/12/08 10:55:01;;;;;;;16.42;4.72;;;;;;;;;;5070024;28;20440;-61
2021/12/08 10:57:27;;;;;;;20.58;3.63;;;;;;;;;;5063878;28;20146;-62
2021/12/08 10:59:59;;;;;;;14.15;3.33;;;;;;;;;;5047309;28;20469;-63
2021/12/08 11:02:40;;;;;;;19.50;3.20;;;;;;;;;;5058320;28;20532;-62
2021/12/08 11:05:08;;;;;;;13.80;2.83;;;;;;;;;;5044000;28;20044;-62
2021/12/08 11:07:34;;;;;;;11.15;2.65;;;;;;;;;;5056189;28;20128;-62
2021/12/08 11:10:16;;;;;;;13.38;3.95;;;;;;;;;;5056830;28;20546;-62
2021/12/08 11:12:42;;;;;;;11.98;2.97;;;;;;;;;;5040247;28;20048;-62
2021/12/08 11:15:21;;;;;;;7.30;3.40;;;;;;;;;;5040780;28;20079;-62
2021/12/08 11:17:48;;;;;;;12.10;2.72;;;;;;;;;;5046798;28;20088;-62
2021/12/08 11:20:17;;;;;;;13.05;2.97;;;;;;;;;;5068208;28;20077;-62
2021/12/08 11:22:47;;;;;;;12.75;2.92;;;;;;;;;;5073910;28;20127;-62
2021/12/08 11:25:23;;;;;;;12.52;4.05;;;;;;;;;;5054881;28;20488;-62
2021/12/08 11:27:49;;;;;;;12.77;3.53;;;;;;;;;;5073426;28;20116;-62
2021/12/08 11:30:22;;;;;;;17.20;3.47;;;;;;;;;;5053889;28;20587;-62
2021/12/08 11:32:48;;;;;;;12.50;3.20;;;;;;;;;;5072423;28;20040;-62
2021/12/08 11:35:21;;;;;;;15.07;2.88;;;;;;;;;;5072508;28;20124;-62
2021/12/08 11:37:58;;;;;;;12.20;4.20;;;;;;;;;;5073464;28;20128;-62
2021/12/08 11:40:24;;;;;;;14.77;4.18;;;;;;;;;;5053676;28;20048;-62
2021/12/08 11:42:50;;;;;;;12.38;3.53;;;;;;;;;;5064824;28;20082;-63
2021/12/08 11:45:18;;;;;;;15.25;3.90;;;;;;;;;;5071121;28;20063;-62
2021/12/08 11:47:44;;;;;;;13.38;2.83;;;;;;;;;;5053731;28;20037;-62
2021/12/08 11:50:12;;;;;;;7.57;3.38;;;;;;;;;;5068505;28;20098;-62
2021/12/08 11:52:39;;;;;;;10.43;3.40;;;;;;;;;;5073372;28;20056;-62
2021/12/08 11:55:09;;;;;;;17.40;3.92;;;;;;;;;;5071483;28;20458;-62
2021/12/08 11:57:37;;;;;;;11.10;3.47;;;;;;;;;;5055608;28;20084;-62
2021/12/08 12:00:03;;;;;;;11.02;4.38;;;;;;;;;;5055296;28;20045;-69
2021/12/08 12:02:32;;;;;;;17.25;4.15;;;;;;;;;;5038543;28;20365;-62
2021/12/08 12:04:59;;;;;;;9.90;4.20;;;;;;;;;;5065777;28;20037;-61
2021/12/08 12:07:25;;;;;;;12.00;3.40;;;;;;;;;;5046620;28;20163;-62
2021/12/08 12:09:51;;;;;;;13.35;3.83;;;;;;;;;;5066948;28;20507;-62
2021/12/08 12:12:18;;;;;;;11.32;3.83;;;;;;;;;;5067690;28;20131;-62
2021/12/08 12:14:45;;;;;;;9.35;3.40;;;;;;;;;;5067240;28;20404;-62
2021/12/08 12:17:11;;;;;;;14.35;4.10;;;;;;;;;;5048336;28;20055;-63
2021/12/08 12:19:46;;;;;;;13.18;4.20;;;;;;;;;;5065180;28;20179;-62
2021/12/08 12:22:13;;;;;;;10.77;3.58;;;;;;;;;;5046411;28;20101;-62
2021/12/08 12:24:48;;;;;;;11.32;3.83;;;;;;;;;;5066284;28;20063;-62
2021/12/08 12:27:15;;;;;;;8.77;3.40;;;;;;;;;;5048895;28;20411;-62
2021/12/08 12:29:49;;;;;;;12.10;4.07;;;;;;;;;;5067621;28;20044;-62
2021/12/08 12:32:22;;;;;;;10.88;3.58;;;;;;;;;;5066255;28;20116;-62
2021/12/08 12:34:52;;;;;;;9.13;4.10;;;;;;;;;;5055237;28;20041;-62
2021/12/08 12:37:19;;;;;;;10.80;3.67;;;;;;;;;;5045551;28;20064;-62
2021/12/08 12:39:52;;;;;;;9.80;3.53;;;;;;;;;;5071789;28;20044;-62
2021/12/08 12:42:20;;;;;;;11.75;4.00;;;;;;;;;;5061559;28;20056;-63
2021/12/08 12:44:58;;;;;;;7.25;3.20;;;;;;;;;;5065223;28;20123;-62
2021/12/08 12:47:28;;;;;;;10.52;3.72;;;;;;;;;;5071682;28;20143;-62
2021/12/08 12:50:00;;;;;;;8.48;3.17;;;;;;;;;;5070212;28;20461;-62
2021/12/08 12:52:35;;;;;;;13.20;3.80;;;;;;;;;;5053256;28;20369;-63
2021/12/08 12:55:20;;;;;;;10.25;3.38;;;;;;;;;;5055124;28;20089;-62
2021/12/08 12:58:02;;;;;;;10.73;4.00;;;;;;;;;;5061779;28;20040;-63
2021/12/08 13:00:31;;;;;;;9.70;3.03;;;;;;;;;;5053416;28;20044;-63
2021/12/08 13:02:57;;;;;;;9.93;2.70;;;;;;;;;;5071428;28;20052;-63
2021/12/08 13:05:24;;;;;;;14.32;4.32;;;;;;;;;;5055235;28;20037;-63
2021/12/08 13:07:58;;;;;;;11.68;3.05;;;;;;;;;;5054060;28;20041;-63
2021/12/08 13:10:34;;;;;;;9.63;2.85;;;;;;;;;;5046884;28;20499;-63
2021/12/08 13:13:15;;;;;;;9.88;2.70;;;;;;;;;;5065170;28;21170;-63
2021/12/08 13:15:42;;;;;;;9.55;2.78;;;;;;;;;;5048336;28;20044;-63
2021/12/08 13:18:11;;;;;;;10.13;2.50;;;;;;;;;;5066428;28;20049;-63
2021/12/08 13:20:41;;;;;;;8.60;2.45;;;;;;;;;;5065020;28;20131;-63
2021/12/08 13:23:09;;;;;;;10.63;2.92;;;;;;;;;;5065066;28;20443;-63
2021/12/08 13:28:17;;;;;;;11.57;2.75;;;;;;;;;;5065574;28;20049;-63
2021/12/08 13:30:45;;;;;;;7.18;2.33;;;;;;;;;;5047580;28;20449;-63
2021/12/08 13:33:27;;;;;;;5.50;2.10;;;;;;;;;;5065044;28;20044;-63
2021/12/08 13:35:53;;;;;;;7.22;2.38;;;;;;;;;;5065902;28;20060;-63
2021/12/08 13:38:20;;;;;;;8.43;2.13;;;;;;;;;;5063055;28;20402;-63
2021/12/08 13:40:49;;;;;;;7.72;2.47;;;;;;;;;;5064942;28;20068;-63
2021/12/08 13:43:32;;;;;;;11.15;2.72;;;;;;;;;;5066873;28;20130;-63
2021/12/08 13:45:58;;;;;;;11.98;3.15;;;;;;;;;;5065972;28;20067;-63
2021/12/08 13:48:25;;;;;;;12.40;3.15;;;;;;;;;;5064789;28;20112;-63
2021/12/08 13:50:51;;;;;;;14.23;2.30;;;;;;;;;;5064477;28;20117;-63
2021/12/08 13:53:18;;;;;;;12.77;3.15;;;;;;;;;;5066271;28;20045;-63
2021/12/08 13:55:49;;;;;;;8.20;2.80;;;;;;;;;;5064706;28;20049;-63
2021/12/08 13:58:16;;;;;;;8.25;3.33;;;;;;;;;;5047019;28;20055;-63
2021/12/08 14:00:47;;;;;;;9.65;2.40;;;;;;;;;;5064180;28;20136;-63
2021/12/08 14:03:15;;;;;;;10.73;2.78;;;;;;;;;;5064082;28;20067;-63
2021/12/08 14:05:45;;;;;;;7.75;2.13;;;;;;;;;;5064226;28;20037;-63
2021/12/08 14:08:26;;;;;;;10.88;3.03;;;;;;;;;;5063189;28;20048;-63
2021/12/08 14:10:57;;;;;;;10.80;3.00;;;;;;;;;;5062994;28;20040;-63
2021/12/08 14:13:26;;;;;;;7.85;2.40;;;;;;;;;;5063903;28;20032;-63
2021/12/08 14:15:55;;;;;;;14.90;2.90;;;;;;;;;;5047482;28;20492;-63
2021/12/08 14:18:24;;;;;;;9.00;2.45;;;;;;;;;;5064749;28;20118;-63
2021/12/08 14:20:53;;;;;;;13.80;3.10;;;;;;;;;;5065018;28;20050;-63
2021/12/08 14:23:20;;;;;;;9.32;2.17;;;;;;;;;;5063593;28;20096;-63
2021/12/08 14:25:48;;;;;;;13.35;2.80;;;;;;;;;;5065219;28;20041;-63
2021/12/08 14:28:29;;;;;;;7.20;2.42;;;;;;;;;;5064106;28;20048;-63
2021/12/08 14:30:56;;;;;;;7.57;2.33;;;;;;;;;;5062864;28;20048;-63
2021/12/08 14:33:23;;;;;;;7.55;2.53;;;;;;;;;;5063684;28;20159;-63
2021/12/08 14:35:57;;;;;;;10.93;2.42;;;;;;;;;;5062496;28;20117;-63
2021/12/08 14:38:24;;;;;;;11.45;2.75;;;;;;;;;;5047893;28;20087;-63
2021/12/08 14:40:50;;;;;;;9.38;2.30;;;;;;;;;;5070238;28;20051;-63
2021/12/08 14:43:28;;;;;;;8.75;2.80;;;;;;;;;;5035822;28;20053;-62
2021/12/08 14:45:54;;;;;;;14.38;4.20;;;;;;;;;;5062665;28;20452;-63
2021/12/08 14:48:20;;;;;;;7.15;2.42;;;;;;;;;;5070371;28;20045;-62
2021/12/08 14:50:47;;;;;;;10.18;2.53;;;;;;;;;;5067647;28;20036;-62
2021/12/08 14:53:14;;;;;;;14.23;2.72;;;;;;;;;;5040146;28;20127;-62
2021/12/08 14:55:40;;;;;;;9.57;2.42;;;;;;;;;;5059059;28;20051;-62
2021/12/08 14:58:06;;;;;;;13.55;3.22;;;;;;;;;;5062491;28;20041;-62
2021/12/08 15:00:32;;;;;;;11.85;2.65;;;;;;;;;;5051438;28;20087;-62
2021/12/08 15:03:00;;;;;;;11.60;3.00;;;;;;;;;;5052133;28;20073;-62
2021/12/08 15:05:27;;;;;;;9.43;2.63;;;;;;;;;;5065018;28;20097;-62
2021/12/08 15:07:53;;;;;;;12.82;2.85;;;;;;;;;;5066740;28;20123;-62
2021/12/08 15:10:26;;;;;;;10.48;3.15;;;;;;;;;;5064567;28;20033;-62
2021/12/08 15:13:05;;;;;;;8.98;3.35;;;;;;;;;;5061598;28;20463;-62